Flight Track Log - Related Links

Times and Time Zones

All times are in EDT time to prevent confusion due to time zone crossing. See the N633WC flight status page for this flight to view local times or setup timezone preferences in your user account.

Time Position Orientation Groundspeed Altitude Reporting Facility
EDT Latitude Longitude Course Direction KTS MPH feet Rate Location/Type
Thu 08:50:48 PM 41.4567 -97.1614 87° East 153 176 7,000  Level Minneapolis Center
Thu 08:51:50 PM 41.4469 -97.0867 100° East 195 224 7,000  Level Minneapolis Center
Thu 08:52:52 PM 41.4358 -97.0078 101° East 213 245 7,000  Level Minneapolis Center
Thu 08:53:54 PM 41.4222 -96.9111 101° East 220 253 7,000  Level Minneapolis Center
Thu 08:54:53 PM 41.4019 -96.8406 111° Southeast 220 253 7,000  Level Minneapolis Center
Thu 08:55:54 PM 41.3931 -96.7608 98° East 220 253 7,000  Level Minneapolis Center
Thu 08:57:01 PM 41.3956 -96.6708 88° East 218 251 7,000 -198 Level Minneapolis Center
Thu 08:57:55 PM 41.3769 -96.5931 108° East 221 254 6,600 -522 Descending Minneapolis Center
Thu 08:58:56 PM 41.3675 -96.5081 98° East 232 267 6,000 -694 Descending Minneapolis Center
Thu 08:59:56 PM 41.3581 -96.4231 98° East 233 268 5,200 -893 Descending Minneapolis Center
Thu 09:00:57 PM 41.3486 -96.3353 98° East 234 269 4,200 -595 Descending Minneapolis Center
Thu 09:01:57 PM 41.3414 -96.2528 97° East 226 260 4,000 -133 Descending Minneapolis Center
Thu 09:02:27 PM 41.3433 -96.2203 85° East 230 265 4,000  Level Minneapolis Center
Thu 09:02:58 PM 41.3367 -96.1783 102° East 209 241 4,000  Level Minneapolis Center
Thu 09:03:29 PM 41.3369 -96.1286 90° East 218 251 4,000 -197 Level Minneapolis Center
Thu 09:03:59 PM 41.3314 -96.0958 103° East 207 238 3,800 -581 Descending Minneapolis Center
Thu 09:04:31 PM 41.3331 -96.0528 87° East 213 245 3,400 -830 Descending Minneapolis Center
Thu 09:05:33 PM 41.3411 -95.9822 81° East 207 238 2,500 -774 Descending Minneapolis Center
Thu 09:06:35 PM 41.3381 -95.9244 94° East 176 203 1,800 -677 Descending Minneapolis Center
Thu 09:07:37 PM 41.3064 -95.8933 144° Southeast 151 174 1,100 -677 Descending Minneapolis Center
Thu 09:09:00 PM 41.3000 -95.8833 90° East  Level FlightAware Approximate

Login

Don't have an account? Register now (free) for customized features, flight alerts, and more!